sensor_id;sensor_type;location;lat;lon;timestamp;pressure;altitude;pressure_sealevel;temperature;humidity
63343;BME280;49465;57.664;39.686;2023-03-15T00:01:20;99586.00;;;5.75;52.61
63343;BME280;49465;57.664;39.686;2023-03-15T00:03:49;99584.00;;;5.80;52.17
63343;BME280;49465;57.664;39.686;2023-03-15T00:06:16;99589.94;;;5.82;52.21
63343;BME280;49465;57.664;39.686;2023-03-15T00:08:48;99589.19;;;5.96;51.88
63343;BME280;49465;57.664;39.686;2023-03-15T00:11:17;99592.44;;;5.84;51.74
63343;BME280;49465;57.664;39.686;2023-03-15T00:13:46;99583.47;;;5.73;51.77
63343;BME280;49465;57.664;39.686;2023-03-15T00:16:15;99593.22;;;5.70;52.14
63343;BME280;49465;57.664;39.686;2023-03-15T00:18:44;99586.81;;;5.75;51.80
63343;BME280;49465;57.664;39.686;2023-03-15T00:21:12;99594.56;;;5.77;51.94
63343;BME280;49465;57.664;39.686;2023-03-15T00:23:42;99594.47;;;5.79;51.92
63343;BME280;49465;57.664;39.686;2023-03-15T00:26:11;99593.97;;;5.72;51.55
63343;BME280;49465;57.664;39.686;2023-03-15T00:28:41;99584.75;;;5.82;52.05
63343;BME280;49465;57.664;39.686;2023-03-15T00:31:16;99589.94;;;5.98;51.21
63343;BME280;49465;57.664;39.686;2023-03-15T00:33:44;99591.19;;;5.75;51.79
63343;BME280;49465;57.664;39.686;2023-03-15T00:36:13;99591.69;;;5.82;51.37
63343;BME280;49465;57.664;39.686;2023-03-15T00:38:43;99582.63;;;5.89;51.52
63343;BME280;49465;57.664;39.686;2023-03-15T00:41:14;99588.66;;;5.89;51.21
63343;BME280;49465;57.664;39.686;2023-03-15T00:43:42;99588.53;;;5.77;51.45
63343;BME280;49465;57.664;39.686;2023-03-15T00:46:09;99592.84;;;5.76;50.94
63343;BME280;49465;57.664;39.686;2023-03-15T00:48:36;99589.50;;;5.74;51.17
63343;BME280;49465;57.664;39.686;2023-03-15T00:51:15;99585.69;;;6.11;51.45
63343;BME280;49465;57.664;39.686;2023-03-15T00:53:43;99579.19;;;5.88;51.18
63343;BME280;49465;57.664;39.686;2023-03-15T00:56:13;99587.91;;;5.87;50.83
63343;BME280;49465;57.664;39.686;2023-03-15T00:58:40;99577.78;;;5.83;51.38
63343;BME280;49465;57.664;39.686;2023-03-15T01:01:09;99580.84;;;5.89;51.05
63343;BME280;49465;57.664;39.686;2023-03-15T01:03:39;99588.84;;;5.86;50.54
63343;BME280;49465;57.664;39.686;2023-03-15T01:06:15;99586.88;;;5.90;50.58
63343;BME280;49465;57.664;39.686;2023-03-15T01:08:45;99575.41;;;5.78;51.58
63343;BME280;49465;57.664;39.686;2023-03-15T01:11:15;99571.88;;;5.79;51.15
63343;BME280;49465;57.664;39.686;2023-03-15T01:13:45;99583.38;;;5.91;50.99
63343;BME280;49465;57.664;39.686;2023-03-15T01:16:14;99574.50;;;5.79;50.88
63343;BME280;49465;57.664;39.686;2023-03-15T01:18:43;99575.75;;;5.72;50.76
63343;BME280;49465;57.664;39.686;2023-03-15T01:21:14;99585.81;;;5.78;50.72
63343;BME280;49465;57.664;39.686;2023-03-15T01:23:41;99582.66;;;5.73;50.92
63343;BME280;49465;57.664;39.686;2023-03-15T01:26:12;99587.91;;;5.87;50.43
63343;BME280;49465;57.664;39.686;2023-03-15T01:28:51;99587.34;;;5.98;50.40
63343;BME280;49465;57.664;39.686;2023-03-15T01:31:29;99588.16;;;6.14;50.07
63343;BME280;49465;57.664;39.686;2023-03-15T01:34:08;99594.13;;;6.01;50.35
63343;BME280;49465;57.664;39.686;2023-03-15T01:36:54;99593.94;;;6.20;50.07
63343;BME280;49465;57.664;39.686;2023-03-15T01:39:40;99588.28;;;6.27;50.08
63343;BME280;49465;57.664;39.686;2023-03-15T01:42:25;99590.31;;;6.22;49.63
63343;BME280;49465;57.664;39.686;2023-03-15T01:45:48;99590.59;;;6.02;49.96
63343;BME280;49465;57.664;39.686;2023-03-15T01:48:09;99590.44;;;6.05;49.59
63343;BME280;49465;57.664;39.686;2023-03-15T01:50:59;99594.88;;;6.33;50.29
63343;BME280;49465;57.664;39.686;2023-03-15T01:53:42;99591.06;;;6.24;50.22
63343;BME280;49465;57.664;39.686;2023-03-15T01:56:41;99594.81;;;6.34;49.99
63343;BME280;49465;57.664;39.686;2023-03-15T01:59:33;99591.56;;;6.15;49.56
63343;BME280;49465;57.664;39.686;2023-03-15T02:02:15;99589.59;;;6.04;49.70
63343;BME280;49465;57.664;39.686;2023-03-15T02:05:06;99598.44;;;6.32;49.83
63343;BME280;49465;57.664;39.686;2023-03-15T02:07:53;99597.38;;;6.20;49.72
63343;BME280;49465;57.664;39.686;2023-03-15T02:10:44;99585.69;;;6.27;48.73
63343;BME280;49465;57.664;39.686;2023-03-15T02:13:27;99590.81;;;6.13;50.17
63343;BME280;49465;57.664;39.686;2023-03-15T02:16:32;99597.66;;;6.16;49.32
63343;BME280;49465;57.664;39.686;2023-03-15T02:18:59;99595.47;;;5.76;50.28
63343;BME280;49465;57.664;39.686;2023-03-15T02:21:35;99592.44;;;6.00;50.35
63343;BME280;49465;57.664;39.686;2023-03-15T02:24:39;99594.41;;;6.26;49.23
63343;BME280;49465;57.664;39.686;2023-03-15T02:27:24;99590.69;;;5.84;50.26
63343;BME280;49465;57.664;39.686;2023-03-15T02:30:13;99592.63;;;6.27;49.52
63343;BME280;49465;57.664;39.686;2023-03-15T02:32:53;99591.56;;;6.15;49.75
63343;BME280;49465;57.664;39.686;2023-03-15T02:35:31;99595.38;;;6.09;50.69
63343;BME280;49465;57.664;39.686;2023-03-15T02:38:14;99595.34;;;6.25;50.09
63343;BME280;49465;57.664;39.686;2023-03-15T02:40:46;99596.75;;;6.01;50.34
63343;BME280;49465;57.664;39.686;2023-03-15T02:43:41;99593.81;;;6.21;49.21
63343;BME280;49465;57.664;39.686;2023-03-15T02:46:24;99584.94;;;6.09;49.55
63343;BME280;49465;57.664;39.686;2023-03-15T02:49:08;99592.25;;;6.19;49.25
63343;BME280;49465;57.664;39.686;2023-03-15T02:51:51;99589.75;;;6.01;49.06
63343;BME280;49465;57.664;39.686;2023-03-15T02:54:36;99588.00;;;6.02;50.45
63343;BME280;49465;57.664;39.686;2023-03-15T02:57:27;99591.56;;;6.15;49.33
63343;BME280;49465;57.664;39.686;2023-03-15T03:00:13;99593.94;;;5.88;50.09
63343;BME280;49465;57.664;39.686;2023-03-15T03:03:10;99590.53;;;6.33;48.87
63343;BME280;49465;57.664;39.686;2023-03-15T03:05:55;99596.66;;;6.02;49.84
63343;BME280;49465;57.664;39.686;2023-03-15T03:08:33;99593.84;;;5.89;50.37
63343;BME280;49465;57.664;39.686;2023-03-15T03:11:13;99603.75;;;6.14;49.31
63343;BME280;49465;57.664;39.686;2023-03-15T03:13:41;99597.31;;;5.74;49.51
63343;BME280;49465;57.664;39.686;2023-03-15T03:16:08;99598.19;;;5.74;50.06
63343;BME280;49465;57.664;39.686;2023-03-15T03:18:38;99589.63;;;5.72;50.01
63343;BME280;49465;57.664;39.686;2023-03-15T03:21:10;99593.78;;;5.91;49.71
63343;BME280;49465;57.664;39.686;2023-03-15T03:23:37;99594.81;;;5.72;49.41
63343;BME280;49465;57.664;39.686;2023-03-15T03:26:13;99588.56;;;5.91;50.59
63343;BME280;49465;57.664;39.686;2023-03-15T03:28:52;99589.69;;;5.87;49.83
63343;BME280;49465;57.664;39.686;2023-03-15T03:31:28;99587.25;;;6.00;49.84
63343;BME280;49465;57.664;39.686;2023-03-15T03:34:06;99588.84;;;5.86;49.96
63343;BME280;49465;57.664;39.686;2023-03-15T03:36:37;99580.47;;;5.65;50.20
63343;BME280;49465;57.664;39.686;2023-03-15T03:39:03;99589.44;;;5.60;50.81
63343;BME280;49465;57.664;39.686;2023-03-15T03:41:33;99585.50;;;5.84;50.79
63343;BME280;49465;57.664;39.686;2023-03-15T03:43:59;99580.94;;;5.72;50.73
63343;BME280;49465;57.664;39.686;2023-03-15T03:46:25;99591.78;;;5.64;50.60
63343;BME280;49465;57.664;39.686;2023-03-15T03:48:54;99587.59;;;5.62;50.58
63343;BME280;49465;57.664;39.686;2023-03-15T03:51:23;99583.06;;;5.65;50.61
63343;BME280;49465;57.664;39.686;2023-03-15T03:53:50;99585.81;;;5.62;50.82
63343;BME280;49465;57.664;39.686;2023-03-15T03:56:16;99589.78;;;5.69;50.27
63343;BME280;49465;57.664;39.686;2023-03-15T03:58:43;99597.41;;;5.72;50.86
63343;BME280;49465;57.664;39.686;2023-03-15T04:01:12;99601.53;;;5.77;50.66
63343;BME280;49465;57.664;39.686;2023-03-15T04:03:38;99601.59;;;5.75;50.51
63343;BME280;49465;57.664;39.686;2023-03-15T04:06:05;99604.28;;;5.73;50.68
63343;BME280;49465;57.664;39.686;2023-03-15T04:08:32;99603.03;;;5.81;50.60
63343;BME280;49465;57.664;39.686;2023-03-15T04:10:58;99607.63;;;5.75;50.38
63343;BME280;49465;57.664;39.686;2023-03-15T04:13:25;99606.97;;;5.72;50.42
63343;BME280;49465;57.664;39.686;2023-03-15T04:15:52;99599.75;;;5.77;50.64
63343;BME280;49465;57.664;39.686;2023-03-15T04:18:22;99610.44;;;5.72;50.62
63343;BME280;49465;57.664;39.686;2023-03-15T04:20:49;99606.72;;;5.77;50.78
63343;BME280;49465;57.664;39.686;2023-03-15T04:23:23;99608.91;;;5.84;50.88
63343;BME280;49465;57.664;39.686;2023-03-15T04:25:51;99615.78;;;5.85;50.65
63343;BME280;49465;57.664;39.686;2023-03-15T04:28:20;99610.91;;;5.79;50.77
63343;BME280;49465;57.664;39.686;2023-03-15T04:30:49;99614.53;;;5.77;50.65
63343;BME280;49465;57.664;39.686;2023-03-15T04:33:15;99613.84;;;5.73;50.85
63343;BME280;49465;57.664;39.686;2023-03-15T04:35:45;99627.69;;;5.89;51.56
63343;BME280;49465;57.664;39.686;2023-03-15T04:38:11;99627.19;;;5.83;51.10
63343;BME280;49465;57.664;39.686;2023-03-15T04:40:56;99628.78;;;6.17;50.02
63343;BME280;49465;57.664;39.686;2023-03-15T04:43:31;99624.19;;;6.06;50.90
63343;BME280;49465;57.664;39.686;2023-03-15T04:46:00;99626.13;;;5.71;51.36
63343;BME280;49465;57.664;39.686;2023-03-15T04:48:27;99631.72;;;5.79;51.12
63343;BME280;49465;57.664;39.686;2023-03-15T04:50:57;99631.06;;;5.75;51.49
63343;BME280;49465;57.664;39.686;2023-03-15T04:53:23;99638.84;;;5.75;51.05
63343;BME280;49465;57.664;39.686;2023-03-15T04:55:52;99639.94;;;5.71;51.42
63343;BME280;49465;57.664;39.686;2023-03-15T04:58:22;99641.13;;;5.66;51.59
63343;BME280;49465;57.664;39.686;2023-03-15T05:01:02;99637.44;;;5.70;51.99
63343;BME280;49465;57.664;39.686;2023-03-15T05:03:29;99635.56;;;5.56;51.67
63343;BME280;49465;57.664;39.686;2023-03-15T05:05:56;99635.41;;;5.59;51.62
63343;BME280;49465;57.664;39.686;2023-03-15T05:08:22;99629.47;;;5.73;51.75
63343;BME280;49465;57.664;39.686;2023-03-15T05:10:52;99633.00;;;6.04;51.39
63343;BME280;49465;57.664;39.686;2023-03-15T05:13:19;99639.59;;;5.78;51.68
63343;BME280;49465;57.664;39.686;2023-03-15T05:15:48;99643.22;;;5.75;51.30
63343;BME280;49465;57.664;39.686;2023-03-15T05:18:15;99647.59;;;5.74;51.71
63343;BME280;49465;57.664;39.686;2023-03-15T05:20:50;99647.28;;;5.97;51.44
63343;BME280;49465;57.664;39.686;2023-03-15T05:23:26;99644.47;;;5.84;51.50
63343;BME280;49465;57.664;39.686;2023-03-15T05:26:01;99646.31;;;5.82;51.70
63343;BME280;49465;57.664;39.686;2023-03-15T05:28:29;99638.44;;;5.83;51.61
63343;BME280;49465;57.664;39.686;2023-03-15T05:30:59;99659.28;;;5.99;51.75
63343;BME280;49465;57.664;39.686;2023-03-15T05:33:30;99668.75;;;6.16;51.27
63343;BME280;49465;57.664;39.686;2023-03-15T05:35:59;99666.06;;;6.02;51.91
63343;BME280;49465;57.664;39.686;2023-03-15T05:38:26;99676.66;;;5.99;51.22
63343;BME280;49465;57.664;39.686;2023-03-15T05:41:00;99676.28;;;6.21;50.98
63343;BME280;49465;57.664;39.686;2023-03-15T05:43:52;99685.69;;;6.69;51.17
63343;BME280;49465;57.664;39.686;2023-03-15T05:46:22;99677.88;;;7.28;49.15
63343;BME280;49465;57.664;39.686;2023-03-15T05:48:57;99686.75;;;6.51;50.67
63343;BME280;49465;57.664;39.686;2023-03-15T05:51:35;99692.28;;;6.45;51.17
63343;BME280;49465;57.664;39.686;2023-03-15T05:54:18;99706.63;;;6.68;50.12
63343;BME280;49465;57.664;39.686;2023-03-15T05:56:57;99702.06;;;6.41;50.96
63343;BME280;49465;57.664;39.686;2023-03-15T05:59:32;99705.50;;;6.42;51.13
63343;BME280;49465;57.664;39.686;2023-03-15T06:02:02;99704.34;;;6.31;50.70
63343;BME280;49465;57.664;39.686;2023-03-15T06:04:37;99711.19;;;6.48;51.19
63343;BME280;49465;57.664;39.686;2023-03-15T06:07:09;99710.22;;;6.35;51.25
63343;BME280;49465;57.664;39.686;2023-03-15T06:09:46;99711.28;;;6.63;51.04
63343;BME280;49465;57.664;39.686;2023-03-15T06:12:19;99723.31;;;6.49;51.38
63343;BME280;49465;57.664;39.686;2023-03-15T06:14:49;99720.34;;;6.56;51.33
63343;BME280;49465;57.664;39.686;2023-03-15T06:17:16;99716.25;;;6.51;51.04
63343;BME280;49465;57.664;39.686;2023-03-15T06:19:49;99716.41;;;6.48;51.21
63343;BME280;49465;57.664;39.686;2023-03-15T06:22:21;99714.72;;;6.63;51.25
63343;BME280;49465;57.664;39.686;2023-03-15T06:24:49;99717.91;;;6.68;51.07
63343;BME280;49465;57.664;39.686;2023-03-15T06:27:16;99721.63;;;6.48;50.66
63343;BME280;49465;57.664;39.686;2023-03-15T06:29:48;99722.94;;;6.56;51.02
63343;BME280;49465;57.664;39.686;2023-03-15T06:32:14;99718.06;;;6.65;51.24
63343;BME280;49465;57.664;39.686;2023-03-15T06:34:43;99730.22;;;6.81;50.71
63343;BME280;49465;57.664;39.686;2023-03-15T06:37:10;99728.22;;;6.70;50.69
63343;BME280;49465;57.664;39.686;2023-03-15T06:39:39;99729.41;;;6.95;51.03
63343;BME280;49465;57.664;39.686;2023-03-15T06:42:06;99738.50;;;6.87;50.89
63343;BME280;49465;57.664;39.686;2023-03-15T06:44:34;99744.91;;;6.82;50.68
63343;BME280;49465;57.664;39.686;2023-03-15T06:47:00;99750.63;;;6.88;50.48
63343;BME280;49465;57.664;39.686;2023-03-15T06:49:27;99749.50;;;6.92;50.38
63343;BME280;49465;57.664;39.686;2023-03-15T06:51:53;99752.94;;;6.93;50.02
63343;BME280;49465;57.664;39.686;2023-03-15T06:54:20;99761.06;;;7.03;50.21
63343;BME280;49465;57.664;39.686;2023-03-15T06:56:49;99750.22;;;7.10;50.31
63343;BME280;49465;57.664;39.686;2023-03-15T06:59:16;99744.25;;;7.08;50.10
63343;BME280;49465;57.664;39.686;2023-03-15T07:01:43;99743.28;;;7.09;49.90
63343;BME280;49465;57.664;39.686;2023-03-15T07:04:27;99760.41;;;7.29;49.39
63343;BME280;49465;57.664;39.686;2023-03-15T07:07:02;99751.47;;;7.33;49.72
63343;BME280;49465;57.664;39.686;2023-03-15T07:09:31;99758.78;;;7.27;50.12
63343;BME280;49465;57.664;39.686;2023-03-15T07:12:11;99762.84;;;7.47;50.34
63343;BME280;49465;57.664;39.686;2023-03-15T07:14:45;99762.94;;;7.45;49.59
63343;BME280;49465;57.664;39.686;2023-03-15T07:17:18;99755.44;;;7.25;49.90
63343;BME280;49465;57.664;39.686;2023-03-15T07:19:47;99762.06;;;7.30;49.25
63343;BME280;49465;57.664;39.686;2023-03-15T07:22:13;99766.53;;;7.28;50.10
63343;BME280;49465;57.664;39.686;2023-03-15T07:24:40;99764.41;;;7.35;49.58
63343;BME280;49465;57.664;39.686;2023-03-15T07:27:15;99763.03;;;7.44;48.59
63343;BME280;49465;57.664;39.686;2023-03-15T07:29:42;99760.19;;;7.32;49.44
63343;BME280;49465;57.664;39.686;2023-03-15T07:32:16;99775.59;;;7.51;49.50
63343;BME280;49465;57.664;39.686;2023-03-15T07:34:57;99764.97;;;7.40;48.99
63343;BME280;49465;57.664;39.686;2023-03-15T07:37:27;99765.16;;;7.37;49.07
63343;BME280;49465;57.664;39.686;2023-03-15T07:39:54;99758.72;;;7.28;49.12
63343;BME280;49465;57.664;39.686;2023-03-15T07:42:22;99759.66;;;7.42;49.40
63343;BME280;49465;57.664;39.686;2023-03-15T07:44:52;99766.44;;;7.30;49.93
63343;BME280;49465;57.664;39.686;2023-03-15T07:47:24;99772.91;;;7.53;49.27
63343;BME280;49465;57.664;39.686;2023-03-15T07:50:04;99763.88;;;7.59;48.64
63343;BME280;49465;57.664;39.686;2023-03-15T07:52:33;99761.50;;;7.25;49.10
63343;BME280;49465;57.664;39.686;2023-03-15T07:55:06;99772.06;;;7.52;49.25
63343;BME280;49465;57.664;39.686;2023-03-15T07:57:49;99768.59;;;7.38;49.02
63343;BME280;49465;57.664;39.686;2023-03-15T08:00:25;99764.72;;;7.45;48.73
63343;BME280;49465;57.664;39.686;2023-03-15T08:03:05;99764.88;;;7.27;48.70
63343;BME280;49465;57.664;39.686;2023-03-15T08:05:45;99770.75;;;7.45;49.05
63343;BME280;49465;57.664;39.686;2023-03-15T08:08:20;99780.53;;;7.56;48.66
63343;BME280;49465;57.664;39.686;2023-03-15T08:10:52;99791.63;;;7.45;48.47
63343;BME280;49465;57.664;39.686;2023-03-15T08:13:30;99798.88;;;7.55;49.13
63343;BME280;49465;57.664;39.686;2023-03-15T08:16:04;99791.50;;;7.32;48.80
63343;BME280;49465;57.664;39.686;2023-03-15T08:18:34;99798.13;;;7.38;48.83
63343;BME280;49465;57.664;39.686;2023-03-15T08:21:09;99800.28;;;7.31;48.99
63343;BME280;49465;57.664;39.686;2023-03-15T08:23:38;99797.47;;;7.35;49.26
63343;BME280;49465;57.664;39.686;2023-03-15T08:26:10;99786.13;;;7.36;49.10
63343;BME280;49465;57.664;39.686;2023-03-15T08:28:39;99796.22;;;7.11;48.91
63343;BME280;49465;57.664;39.686;2023-03-15T08:31:21;99802.22;;;7.42;48.86
63343;BME280;49465;57.664;39.686;2023-03-15T08:33:53;99798.56;;;7.30;48.71
63343;BME280;49465;57.664;39.686;2023-03-15T08:36:26;99808.63;;;7.37;48.64
63343;BME280;49465;57.664;39.686;2023-03-15T08:38:52;99818.06;;;7.39;48.74
63343;BME280;49465;57.664;39.686;2023-03-15T08:41:30;99812.59;;;7.58;48.51
63343;BME280;49465;57.664;39.686;2023-03-15T08:44:08;99813.72;;;7.54;48.72
63343;BME280;49465;57.664;39.686;2023-03-15T08:46:53;99816.78;;;7.46;48.38
63343;BME280;49465;57.664;39.686;2023-03-15T08:49:27;99810.81;;;7.44;48.55
63343;BME280;49465;57.664;39.686;2023-03-15T08:52:05;99809.63;;;7.64;48.29
63343;BME280;49465;57.664;39.686;2023-03-15T08:54:40;99808.88;;;7.62;48.60
63343;BME280;49465;57.664;39.686;2023-03-15T08:57:18;99807.50;;;7.57;48.77
63343;BME280;49465;57.664;39.686;2023-03-15T08:59:54;99819.06;;;7.67;48.57
63343;BME280;49465;57.664;39.686;2023-03-15T09:02:27;99819.00;;;7.52;48.32
63343;BME280;49465;57.664;39.686;2023-03-15T09:04:54;99815.13;;;7.60;48.55
63343;BME280;49465;57.664;39.686;2023-03-15T09:07:23;99826.31;;;7.62;48.11
63343;BME280;49465;57.664;39.686;2023-03-15T09:10:03;99819.97;;;7.66;47.67
63343;BME280;49465;57.664;39.686;2023-03-15T09:12:50;99829.88;;;7.75;47.57
63343;BME280;49465;57.664;39.686;2023-03-15T09:15:22;99829.38;;;8.26;46.55
63343;BME280;49465;57.664;39.686;2023-03-15T09:17:57;99829.50;;;7.81;47.44
63343;BME280;49465;57.664;39.686;2023-03-15T09:20:26;99842.44;;;7.97;47.06
63343;BME280;49465;57.664;39.686;2023-03-15T09:22:55;99836.69;;;7.92;47.05
63343;BME280;49465;57.664;39.686;2023-03-15T09:25:23;99834.16;;;7.90;47.52
63343;BME280;49465;57.664;39.686;2023-03-15T09:27:53;99831.56;;;7.90;47.06
63343;BME280;49465;57.664;39.686;2023-03-15T09:30:41;99831.00;;;8.00;46.85
63343;BME280;49465;57.664;39.686;2023-03-15T09:33:22;99824.00;;;8.00;46.49
63343;BME280;49465;57.664;39.686;2023-03-15T09:35:51;99828.16;;;7.74;47.31
63343;BME280;49465;57.664;39.686;2023-03-15T09:38:27;99829.41;;;7.97;46.90
63343;BME280;49465;57.664;39.686;2023-03-15T09:41:04;99833.78;;;8.11;46.13
63343;BME280;49465;57.664;39.686;2023-03-15T09:55:23;99826.69;;;8.42;44.54
63343;BME280;49465;57.664;39.686;2023-03-15T09:58:03;99825.09;;;8.10;45.55
63343;BME280;49465;57.664;39.686;2023-03-15T10:03:37;99830.06;;;8.01;46.71
63343;BME280;49465;57.664;39.686;2023-03-15T10:06:34;99838.41;;;8.35;45.61
63343;BME280;49465;57.664;39.686;2023-03-15T10:09:11;99831.38;;;8.08;46.60
63343;BME280;49465;57.664;39.686;2023-03-15T10:12:04;99827.91;;;8.22;45.02
63343;BME280;49465;57.664;39.686;2023-03-15T10:14:47;99823.81;;;8.18;46.57
63343;BME280;49465;57.664;39.686;2023-03-15T10:17:51;99825.75;;;8.28;44.70
63343;BME280;49465;57.664;39.686;2023-03-15T10:20:40;99832.25;;;8.50;44.89
63343;BME280;49465;57.664;39.686;2023-03-15T10:23:43;99835.72;;;8.36;44.83
63343;BME280;49465;57.664;39.686;2023-03-15T10:26:33;99837.50;;;8.50;45.90
63343;BME280;49465;57.664;39.686;2023-03-15T10:29:05;99843.63;;;8.35;45.33
63343;BME280;49465;57.664;39.686;2023-03-15T10:31:53;99844.38;;;8.65;45.30
63343;BME280;49465;57.664;39.686;2023-03-15T10:34:36;99851.25;;;8.81;45.00
63343;BME280;49465;57.664;39.686;2023-03-15T10:37:19;99846.25;;;8.63;44.77
63343;BME280;49465;57.664;39.686;2023-03-15T10:39:59;99839.69;;;8.70;45.56
63343;BME280;49465;57.664;39.686;2023-03-15T10:42:35;99842.16;;;8.59;43.91
63343;BME280;49465;57.664;39.686;2023-03-15T10:45:21;99847.38;;;8.59;43.90
63343;BME280;49465;57.664;39.686;2023-03-15T10:47:57;99852.16;;;8.80;43.32
63343;BME280;49465;57.664;39.686;2023-03-15T10:50:34;99852.78;;;8.56;44.67
63343;BME280;49465;57.664;39.686;2023-03-15T10:53:15;99854.75;;;8.94;44.78
63343;BME280;49465;57.664;39.686;2023-03-15T10:56:02;99840.94;;;8.92;42.55
63343;BME280;49465;57.664;39.686;2023-03-15T10:58:45;99853.84;;;8.81;42.50
63343;BME280;49465;57.664;39.686;2023-03-15T11:01:30;99856.63;;;8.92;43.09
63343;BME280;49465;57.664;39.686;2023-03-15T11:04:17;99852.13;;;8.94;42.80
63343;BME280;49465;57.664;39.686;2023-03-15T11:07:00;99857.47;;;9.05;43.18
63343;BME280;49465;57.664;39.686;2023-03-15T11:09:52;99858.09;;;9.36;42.43
63343;BME280;49465;57.664;39.686;2023-03-15T11:12:27;99854.88;;;9.05;41.76
63343;BME280;49465;57.664;39.686;2023-03-15T11:15:09;99856.91;;;9.15;42.37
63343;BME280;49465;57.664;39.686;2023-03-15T11:17:51;99857.53;;;9.18;42.55
63343;BME280;49465;57.664;39.686;2023-03-15T11:20:38;99854.00;;;9.32;41.33
63343;BME280;49465;57.664;39.686;2023-03-15T11:23:27;99865.34;;;9.45;41.17
63343;BME280;49465;57.664;39.686;2023-03-15T11:26:08;99865.06;;;9.23;41.85
63343;BME280;49465;57.664;39.686;2023-03-15T11:28:52;99869.78;;;9.18;42.06
63343;BME280;49465;57.664;39.686;2023-03-15T11:31:28;99857.63;;;9.17;42.09
63343;BME280;49465;57.664;39.686;2023-03-15T11:34:32;99868.97;;;9.30;42.26
63343;BME280;49465;57.664;39.686;2023-03-15T11:37:15;99881.88;;;9.33;42.43
63343;BME280;49465;57.664;39.686;2023-03-15T11:39:58;99871.19;;;8.96;43.39
63343;BME280;49465;57.664;39.686;2023-03-15T11:43:12;99867.22;;;9.03;43.10
63343;BME280;49465;57.664;39.686;2023-03-15T11:45:49;99866.84;;;9.09;42.10
63343;BME280;49465;57.664;39.686;2023-03-15T11:51:08;99867.09;;;8.78;43.10
63343;BME280;49465;57.664;39.686;2023-03-15T11:54:15;99867.41;;;9.27;40.93
63343;BME280;49465;57.664;39.686;2023-03-15T11:57:00;99865.19;;;9.21;42.85
63343;BME280;49465;57.664;39.686;2023-03-15T11:59:44;99866.84;;;9.09;42.37
63343;BME280;49465;57.664;39.686;2023-03-15T12:04:57;99871.09;;;8.98;42.65
63343;BME280;49465;57.664;39.686;2023-03-15T12:07:37;99883.94;;;9.01;42.88
63343;BME280;49465;57.664;39.686;2023-03-15T12:10:31;99884.91;;;8.85;43.02
63343;BME280;49465;57.664;39.686;2023-03-15T12:13:34;99876.63;;;9.33;43.51
63343;BME280;49465;57.664;39.686;2023-03-15T12:16:09;99876.44;;;9.09;43.21
63343;BME280;49465;57.664;39.686;2023-03-15T12:18:50;99881.75;;;9.07;43.90
63343;BME280;49465;57.664;39.686;2023-03-15T12:22:10;99890.97;;;9.40;42.65
63343;BME280;49465;57.664;39.686;2023-03-15T12:24:49;99878.78;;;9.14;44.18
63343;BME280;49465;57.664;39.686;2023-03-15T12:27:30;99897.81;;;9.16;43.55
63343;BME280;49465;57.664;39.686;2023-03-15T12:30:05;99890.75;;;9.03;44.83
63343;BME280;49465;57.664;39.686;2023-03-15T12:32:46;99886.16;;;9.34;44.24
63343;BME280;49465;57.664;39.686;2023-03-15T12:35:32;99887.69;;;9.24;45.10
63343;BME280;49465;57.664;39.686;2023-03-15T12:38:30;99883.94;;;9.28;45.27
63343;BME280;49465;57.664;39.686;2023-03-15T12:41:33;99891.78;;;9.28;46.04
63343;BME280;49465;57.664;39.686;2023-03-15T12:47:04;99900.28;;;9.04;46.80
63343;BME280;49465;57.664;39.686;2023-03-15T12:54:54;99908.69;;;8.95;46.97
63343;BME280;49465;57.664;39.686;2023-03-15T12:57:38;99913.09;;;8.95;47.52
63343;BME280;49465;57.664;39.686;2023-03-15T13:00:20;99914.75;;;9.10;46.92
63343;BME280;49465;57.664;39.686;2023-03-15T13:03:12;99917.69;;;8.91;47.70
63343;BME280;49465;57.664;39.686;2023-03-15T13:05:58;99908.44;;;8.85;47.59
63343;BME280;49465;57.664;39.686;2023-03-15T13:16:53;99915.03;;;9.05;47.33
63343;BME280;49465;57.664;39.686;2023-03-15T13:19:41;99916.03;;;8.76;47.81
63343;BME280;49465;57.664;39.686;2023-03-15T13:22:26;99916.38;;;9.25;47.97
63343;BME280;49465;57.664;39.686;2023-03-15T13:27:57;99911.88;;;9.00;48.04
63343;BME280;49465;57.664;39.686;2023-03-15T13:30:36;99920.13;;;8.94;48.50
63343;BME280;49465;57.664;39.686;2023-03-15T13:36:00;99902.72;;;8.93;48.86
63343;BME280;49465;57.664;39.686;2023-03-15T13:38:29;99886.47;;;8.61;48.19
63343;BME280;49465;57.664;39.686;2023-03-15T13:41:22;99912.91;;;8.98;48.74
63343;BME280;49465;57.664;39.686;2023-03-15T13:44:00;99908.34;;;8.87;48.48
63343;BME280;49465;57.664;39.686;2023-03-15T13:46:30;99910.97;;;8.87;48.75
63343;BME280;49465;57.664;39.686;2023-03-15T13:49:00;99913.00;;;8.96;48.35
63343;BME280;49465;57.664;39.686;2023-03-15T13:51:35;99907.91;;;9.07;48.49
63343;BME280;49465;57.664;39.686;2023-03-15T13:54:19;99909.28;;;9.13;48.69
63343;BME280;49465;57.664;39.686;2023-03-15T14:02:35;99913.19;;;8.93;48.69
63343;BME280;49465;57.664;39.686;2023-03-15T14:05:09;99906.78;;;8.84;49.48
63343;BME280;49465;57.664;39.686;2023-03-15T14:07:40;99915.63;;;8.82;49.05
63343;BME280;49465;57.664;39.686;2023-03-15T14:10:33;99907.09;;;9.07;48.61
63343;BME280;49465;57.664;39.686;2023-03-15T14:15:48;99898.50;;;8.63;48.51
63343;BME280;49465;57.664;39.686;2023-03-15T14:18:40;99904.59;;;8.91;48.60
63343;BME280;49465;57.664;39.686;2023-03-15T14:21:20;99899.31;;;9.05;48.81
63343;BME280;49465;57.664;39.686;2023-03-15T14:23:56;99881.09;;;8.49;49.31
63343;BME280;49465;57.664;39.686;2023-03-15T14:26:34;99896.47;;;8.68;49.25
63343;BME280;49465;57.664;39.686;2023-03-15T14:29:10;99891.88;;;8.58;48.96
63343;BME280;49465;57.664;39.686;2023-03-15T14:31:57;99902.78;;;8.79;48.71
63343;BME280;49465;57.664;39.686;2023-03-15T14:34:47;99907.44;;;8.74;49.33
63343;BME280;49465;57.664;39.686;2023-03-15T14:37:58;99912.16;;;8.96;48.51
63343;BME280;49465;57.664;39.686;2023-03-15T14:40:33;99908.13;;;8.48;49.20